sensor_id;sensor_type;location;lat;lon;timestamp;P1;durP1;ratioP1;P2;durP2;ratioP2
6941;SDS011;3510;43.200;27.920;2023-08-20T05:29:03;12.18;;;10.48;;
6941;SDS011;3510;43.200;27.920;2023-08-20T05:31:43;10.48;;;9.45;;
6941;SDS011;3510;43.200;27.920;2023-08-20T05:34:24;9.35;;;8.45;;
6941;SDS011;3510;43.200;27.920;2023-08-20T05:37:06;12.35;;;9.27;;
6941;SDS011;3510;43.200;27.920;2023-08-20T05:39:36;9.45;;;8.45;;
6941;SDS011;3510;43.200;27.920;2023-08-20T05:54:59;8.65;;;7.32;;
6941;SDS011;3510;43.200;27.920;2023-08-20T05:57:25;7.30;;;6.80;;
6941;SDS011;3510;43.200;27.920;2023-08-20T05:59:58;10.05;;;7.13;;
6941;SDS011;3510;43.200;27.920;2023-08-20T06:02:25;7.55;;;7.00;;
6941;SDS011;3510;43.200;27.920;2023-08-20T06:04:52;6.80;;;6.25;;
6941;SDS011;3510;43.200;27.920;2023-08-20T06:07:20;7.88;;;7.32;;
6941;SDS011;3510;43.200;27.920;2023-08-20T06:09:47;7.60;;;6.50;;
6941;SDS011;3510;43.200;27.920;2023-08-20T06:12:16;7.75;;;6.32;;
6941;SDS011;3510;43.200;27.920;2023-08-20T06:14:44;6.60;;;6.20;;
6941;SDS011;3510;43.200;27.920;2023-08-20T06:17:10;7.57;;;6.55;;
6941;SDS011;3510;43.200;27.920;2023-08-20T06:19:38;7.13;;;6.13;;
6941;SDS011;3510;43.200;27.920;2023-08-20T06:22:05;8.70;;;5.95;;
6941;SDS011;3510;43.200;27.920;2023-08-20T06:24:32;7.45;;;6.78;;
6941;SDS011;3510;43.200;27.920;2023-08-20T06:26:59;6.50;;;5.88;;
6941;SDS011;3510;43.200;27.920;2023-08-20T06:29:27;9.73;;;5.90;;
6941;SDS011;3510;43.200;27.920;2023-08-20T06:31:54;8.93;;;6.00;;
6941;SDS011;3510;43.200;27.920;2023-08-20T06:34:20;7.65;;;6.65;;
6941;SDS011;3510;43.200;27.920;2023-08-20T06:36:47;6.32;;;6.03;;
6941;SDS011;3510;43.200;27.920;2023-08-20T06:39:15;7.22;;;6.53;;
6941;SDS011;3510;43.200;27.920;2023-08-20T06:41:55;6.15;;;5.85;;
6941;SDS011;3510;43.200;27.920;2023-08-20T06:44:22;6.32;;;5.80;;
6941;SDS011;3510;43.200;27.920;2023-08-20T06:46:51;7.38;;;6.25;;
6941;SDS011;3510;43.200;27.920;2023-08-20T06:49:18;5.88;;;5.38;;
6941;SDS011;3510;43.200;27.920;2023-08-20T06:51:45;6.65;;;6.25;;
6941;SDS011;3510;43.200;27.920;2023-08-20T06:54:12;5.45;;;4.95;;
6941;SDS011;3510;43.200;27.920;2023-08-20T06:56:41;6.22;;;5.82;;
6941;SDS011;3510;43.200;27.920;2023-08-20T06:59:09;5.80;;;5.28;;
6941;SDS011;3510;43.200;27.920;2023-08-20T07:01:36;5.93;;;5.22;;
6941;SDS011;3510;43.200;27.920;2023-08-20T07:04:04;6.78;;;5.38;;
6941;SDS011;3510;43.200;27.920;2023-08-20T07:06:31;5.97;;;5.60;;
6941;SDS011;3510;43.200;27.920;2023-08-20T07:08:58;5.47;;;5.18;;
6941;SDS011;3510;43.200;27.920;2023-08-20T07:11:25;6.07;;;5.47;;
6941;SDS011;3510;43.200;27.920;2023-08-20T07:13:54;6.05;;;5.32;;
6941;SDS011;3510;43.200;27.920;2023-08-20T07:16:21;5.85;;;5.45;;
6941;SDS011;3510;43.200;27.920;2023-08-20T07:18:47;5.47;;;5.07;;
6941;SDS011;3510;43.200;27.920;2023-08-20T07:21:15;5.10;;;4.80;;
6941;SDS011;3510;43.200;27.920;2023-08-20T07:23:42;5.70;;;5.20;;
6941;SDS011;3510;43.200;27.920;2023-08-20T07:26:10;5.00;;;4.60;;
6941;SDS011;3510;43.200;27.920;2023-08-20T07:28:37;5.22;;;4.50;;
6941;SDS011;3510;43.200;27.920;2023-08-20T07:31:18;5.45;;;4.95;;
6941;SDS011;3510;43.200;27.920;2023-08-20T07:33:45;5.85;;;4.70;;
6941;SDS011;3510;43.200;27.920;2023-08-20T07:36:13;5.13;;;4.93;;
6941;SDS011;3510;43.200;27.920;2023-08-20T07:38:50;6.25;;;5.50;;
6941;SDS011;3510;43.200;27.920;2023-08-20T07:41:18;5.43;;;4.85;;
6941;SDS011;3510;43.200;27.920;2023-08-20T07:43:46;6.18;;;4.45;;
6941;SDS011;3510;43.200;27.920;2023-08-20T07:46:13;5.93;;;5.07;;
6941;SDS011;3510;43.200;27.920;2023-08-20T07:48:40;5.50;;;5.00;;
6941;SDS011;3510;43.200;27.920;2023-08-20T07:51:08;5.28;;;4.80;;
6941;SDS011;3510;43.200;27.920;2023-08-20T07:53:36;5.00;;;4.70;;
6941;SDS011;3510;43.200;27.920;2023-08-20T07:56:03;5.85;;;5.40;;
6941;SDS011;3510;43.200;27.920;2023-08-20T07:58:30;6.38;;;5.78;;
6941;SDS011;3510;43.200;27.920;2023-08-20T08:00:57;8.15;;;5.82;;
6941;SDS011;3510;43.200;27.920;2023-08-20T08:03:24;5.80;;;5.30;;
6941;SDS011;3510;43.200;27.920;2023-08-20T08:05:52;5.30;;;5.00;;
6941;SDS011;3510;43.200;27.920;2023-08-20T08:08:19;8.60;;;6.20;;
6941;SDS011;3510;43.200;27.920;2023-08-20T08:10:47;6.50;;;5.93;;
6941;SDS011;3510;43.200;27.920;2023-08-20T08:13:16;8.38;;;5.43;;
6941;SDS011;3510;43.200;27.920;2023-08-20T08:15:44;5.93;;;5.53;;
6941;SDS011;3510;43.200;27.920;2023-08-20T08:18:11;7.35;;;5.93;;
6941;SDS011;3510;43.200;27.920;2023-08-20T08:20:38;6.53;;;5.90;;
6941;SDS011;3510;43.200;27.920;2023-08-20T08:23:04;6.35;;;5.85;;
6941;SDS011;3510;43.200;27.920;2023-08-20T08:25:31;5.60;;;5.18;;
6941;SDS011;3510;43.200;27.920;2023-08-20T08:27:59;5.75;;;5.45;;
6941;SDS011;3510;43.200;27.920;2023-08-20T08:30:27;6.13;;;5.53;;
6941;SDS011;3510;43.200;27.920;2023-08-20T08:32:54;6.25;;;5.63;;
6941;SDS011;3510;43.200;27.920;2023-08-20T08:35:23;12.13;;;6.18;;
6941;SDS011;3510;43.200;27.920;2023-08-20T08:37:49;6.05;;;5.60;;
6941;SDS011;3510;43.200;27.920;2023-08-20T08:40:16;5.72;;;5.22;;
6941;SDS011;3510;43.200;27.920;2023-08-20T08:42:43;6.38;;;6.00;;
6941;SDS011;3510;43.200;27.920;2023-08-20T08:45:17;5.90;;;5.60;;
6941;SDS011;3510;43.200;27.920;2023-08-20T08:47:45;9.73;;;6.22;;
6941;SDS011;3510;43.200;27.920;2023-08-20T08:50:12;5.90;;;5.50;;
6941;SDS011;3510;43.200;27.920;2023-08-20T08:52:40;5.90;;;5.40;;
6941;SDS011;3510;43.200;27.920;2023-08-20T08:55:08;6.22;;;5.75;;
6941;SDS011;3510;43.200;27.920;2023-08-20T08:57:35;6.38;;;5.75;;
6941;SDS011;3510;43.200;27.920;2023-08-20T09:00:02;8.95;;;5.35;;
6941;SDS011;3510;43.200;27.920;2023-08-20T09:02:31;10.90;;;6.28;;
6941;SDS011;3510;43.200;27.920;2023-08-20T09:04:58;7.25;;;5.70;;
6941;SDS011;3510;43.200;27.920;2023-08-20T09:07:27;7.32;;;5.90;;
6941;SDS011;3510;43.200;27.920;2023-08-20T09:09:57;12.85;;;6.70;;
6941;SDS011;3510;43.200;27.920;2023-08-20T09:12:25;11.32;;;6.32;;
6941;SDS011;3510;43.200;27.920;2023-08-20T09:14:53;13.57;;;6.75;;
6941;SDS011;3510;43.200;27.920;2023-08-20T09:17:28;17.17;;;7.03;;
6941;SDS011;3510;43.200;27.920;2023-08-20T09:19:57;17.88;;;8.15;;
6941;SDS011;3510;43.200;27.920;2023-08-20T09:22:24;17.52;;;7.68;;
6941;SDS011;3510;43.200;27.920;2023-08-20T09:24:52;10.57;;;6.60;;
6941;SDS011;3510;43.200;27.920;2023-08-20T09:27:20;8.35;;;6.65;;
6941;SDS011;3510;43.200;27.920;2023-08-20T09:29:48;12.90;;;7.40;;
6941;SDS011;3510;43.200;27.920;2023-08-20T09:32:23;12.32;;;6.75;;
6941;SDS011;3510;43.200;27.920;2023-08-20T09:34:51;13.30;;;7.63;;
6941;SDS011;3510;43.200;27.920;2023-08-20T09:37:21;12.85;;;6.97;;
6941;SDS011;3510;43.200;27.920;2023-08-20T09:39:50;29.27;;;8.07;;
6941;SDS011;3510;43.200;27.920;2023-08-20T09:42:17;27.83;;;7.93;;
6941;SDS011;3510;43.200;27.920;2023-08-20T09:44:44;8.75;;;6.25;;
6941;SDS011;3510;43.200;27.920;2023-08-20T09:47:15;5.93;;;5.38;;
6941;SDS011;3510;43.200;27.920;2023-08-20T09:49:44;15.02;;;5.82;;
6941;SDS011;3510;43.200;27.920;2023-08-20T09:52:12;11.20;;;6.85;;
6941;SDS011;3510;43.200;27.920;2023-08-20T09:54:47;12.20;;;6.20;;
6941;SDS011;3510;43.200;27.920;2023-08-20T09:57:23;8.98;;;5.10;;
6941;SDS011;3510;43.200;27.920;2023-08-20T09:59:57;6.03;;;5.18;;
6941;SDS011;3510;43.200;27.920;2023-08-20T10:02:25;18.85;;;5.93;;
6941;SDS011;3510;43.200;27.920;2023-08-20T10:04:53;7.00;;;5.05;;
6941;SDS011;3510;43.200;27.920;2023-08-20T10:07:19;12.15;;;7.90;;
6941;SDS011;3510;43.200;27.920;2023-08-20T10:10:04;20.55;;;5.97;;
6941;SDS011;3510;43.200;27.920;2023-08-20T10:12:33;12.93;;;5.90;;
6941;SDS011;3510;43.200;27.920;2023-08-20T10:15:01;9.63;;;6.20;;
6941;SDS011;3510;43.200;27.920;2023-08-20T10:17:28;8.70;;;5.47;;
6941;SDS011;3510;43.200;27.920;2023-08-20T10:19:57;11.60;;;6.40;;
6941;SDS011;3510;43.200;27.920;2023-08-20T10:22:32;23.33;;;6.47;;
6941;SDS011;3510;43.200;27.920;2023-08-20T10:24:59;10.88;;;5.50;;
6941;SDS011;3510;43.200;27.920;2023-08-20T10:27:30;14.30;;;6.10;;
6941;SDS011;3510;43.200;27.920;2023-08-20T10:29:58;11.55;;;5.60;;
6941;SDS011;3510;43.200;27.920;2023-08-20T10:35:12;11.60;;;6.45;;
6941;SDS011;3510;43.200;27.920;2023-08-20T10:37:40;8.88;;;5.57;;
6941;SDS011;3510;43.200;27.920;2023-08-20T10:43:31;9.90;;;4.95;;
6941;SDS011;3510;43.200;27.920;2023-08-20T10:46:03;5.68;;;4.82;;
6941;SDS011;3510;43.200;27.920;2023-08-20T10:48:31;5.82;;;4.60;;
6941;SDS011;3510;43.200;27.920;2023-08-20T10:53:40;16.20;;;4.88;;
6941;SDS011;3510;43.200;27.920;2023-08-20T10:56:12;22.73;;;5.05;;
6941;SDS011;3510;43.200;27.920;2023-08-20T10:58:56;12.32;;;4.93;;
6941;SDS011;3510;43.200;27.920;2023-08-20T11:01:32;8.68;;;5.20;;
6941;SDS011;3510;43.200;27.920;2023-08-20T11:04:00;9.25;;;6.10;;
6941;SDS011;3510;43.200;27.920;2023-08-20T11:06:42;11.10;;;6.10;;
6941;SDS011;3510;43.200;27.920;2023-08-20T11:09:24;13.50;;;6.13;;
6941;SDS011;3510;43.200;27.920;2023-08-20T11:12:07;12.18;;;6.15;;
6941;SDS011;3510;43.200;27.920;2023-08-20T11:14:41;7.28;;;5.68;;
6941;SDS011;3510;43.200;27.920;2023-08-20T11:17:22;13.45;;;6.05;;
6941;SDS011;3510;43.200;27.920;2023-08-20T11:20:05;20.05;;;5.78;;
6941;SDS011;3510;43.200;27.920;2023-08-20T11:22:48;7.60;;;5.28;;
6941;SDS011;3510;43.200;27.920;2023-08-20T11:41:57;8.20;;;5.20;;
6941;SDS011;3510;43.200;27.920;2023-08-20T11:44:24;20.75;;;5.95;;
6941;SDS011;3510;43.200;27.920;2023-08-20T11:46:53;13.23;;;5.45;;
6941;SDS011;3510;43.200;27.920;2023-08-20T11:49:26;9.30;;;5.40;;
6941;SDS011;3510;43.200;27.920;2023-08-20T11:51:56;8.13;;;5.15;;
6941;SDS011;3510;43.200;27.920;2023-08-20T11:57:15;14.73;;;4.43;;
6941;SDS011;3510;43.200;27.920;2023-08-20T11:59:46;16.27;;;4.20;;
6941;SDS011;3510;43.200;27.920;2023-08-20T12:02:13;10.02;;;4.70;;
6941;SDS011;3510;43.200;27.920;2023-08-20T12:04:55;43.85;;;6.10;;
6941;SDS011;3510;43.200;27.920;2023-08-20T12:07:25;16.98;;;4.68;;
6941;SDS011;3510;43.200;27.920;2023-08-20T12:10:06;8.07;;;4.25;;
6941;SDS011;3510;43.200;27.920;2023-08-20T12:12:56;19.58;;;5.50;;
6941;SDS011;3510;43.200;27.920;2023-08-20T12:15:25;8.68;;;4.20;;
6941;SDS011;3510;43.200;27.920;2023-08-20T12:17:56;9.23;;;4.10;;
6941;SDS011;3510;43.200;27.920;2023-08-20T12:20:26;24.77;;;6.40;;
6941;SDS011;3510;43.200;27.920;2023-08-20T12:22:56;27.92;;;6.53;;
6941;SDS011;3510;43.200;27.920;2023-08-20T12:25:31;14.23;;;4.30;;
6941;SDS011;3510;43.200;27.920;2023-08-20T12:28:00;10.52;;;4.00;;
6941;SDS011;3510;43.200;27.920;2023-08-20T12:30:28;15.80;;;5.32;;
6941;SDS011;3510;43.200;27.920;2023-08-20T12:32:55;9.63;;;4.53;;
6941;SDS011;3510;43.200;27.920;2023-08-20T12:35:22;7.20;;;4.13;;
6941;SDS011;3510;43.200;27.920;2023-08-20T12:37:49;30.85;;;5.90;;
6941;SDS011;3510;43.200;27.920;2023-08-20T12:40:16;7.15;;;4.28;;
6941;SDS011;3510;43.200;27.920;2023-08-20T12:42:45;6.65;;;4.25;;
6941;SDS011;3510;43.200;27.920;2023-08-20T12:45:19;7.72;;;5.20;;
6941;SDS011;3510;43.200;27.920;2023-08-20T12:47:50;30.98;;;5.95;;
6941;SDS011;3510;43.200;27.920;2023-08-20T12:50:16;15.45;;;5.00;;
6941;SDS011;3510;43.200;27.920;2023-08-20T12:52:43;30.50;;;5.50;;
6941;SDS011;3510;43.200;27.920;2023-08-20T12:55:12;10.38;;;4.90;;
6941;SDS011;3510;43.200;27.920;2023-08-20T12:57:52;16.33;;;4.90;;
6941;SDS011;3510;43.200;27.920;2023-08-20T13:00:21;16.23;;;5.50;;
6941;SDS011;3510;43.200;27.920;2023-08-20T13:02:50;17.30;;;4.65;;
6941;SDS011;3510;43.200;27.920;2023-08-20T13:05:17;6.53;;;4.70;;
6941;SDS011;3510;43.200;27.920;2023-08-20T13:07:55;11.15;;;4.38;;
6941;SDS011;3510;43.200;27.920;2023-08-20T13:10:36;11.50;;;4.70;;
6941;SDS011;3510;43.200;27.920;2023-08-20T13:13:08;32.97;;;5.93;;
6941;SDS011;3510;43.200;27.920;2023-08-20T13:15:37;21.92;;;5.30;;
6941;SDS011;3510;43.200;27.920;2023-08-20T13:18:04;38.47;;;8.13;;
6941;SDS011;3510;43.200;27.920;2023-08-20T13:20:33;30.15;;;6.38;;
6941;SDS011;3510;43.200;27.920;2023-08-20T13:23:08;36.25;;;7.95;;
6941;SDS011;3510;43.200;27.920;2023-08-20T13:25:35;22.50;;;5.82;;
6941;SDS011;3510;43.200;27.920;2023-08-20T13:28:08;12.35;;;5.32;;
6941;SDS011;3510;43.200;27.920;2023-08-20T13:30:37;19.55;;;5.93;;
6941;SDS011;3510;43.200;27.920;2023-08-20T13:33:05;49.47;;;7.25;;
6941;SDS011;3510;43.200;27.920;2023-08-20T13:35:32;12.85;;;4.43;;
6941;SDS011;3510;43.200;27.920;2023-08-20T13:38:00;47.45;;;8.80;;
6941;SDS011;3510;43.200;27.920;2023-08-20T13:40:31;19.88;;;6.40;;
6941;SDS011;3510;43.200;27.920;2023-08-20T13:42:58;9.27;;;5.30;;
6941;SDS011;3510;43.200;27.920;2023-08-20T13:45:26;8.80;;;5.43;;
6941;SDS011;3510;43.200;27.920;2023-08-20T13:47:53;22.75;;;7.05;;
6941;SDS011;3510;43.200;27.920;2023-08-20T13:50:20;15.63;;;5.45;;
6941;SDS011;3510;43.200;27.920;2023-08-20T13:52:47;11.60;;;5.22;;
6941;SDS011;3510;43.200;27.920;2023-08-20T13:55:28;21.08;;;7.05;;
6941;SDS011;3510;43.200;27.920;2023-08-20T13:57:56;26.20;;;7.68;;
6941;SDS011;3510;43.200;27.920;2023-08-20T14:00:24;11.60;;;5.38;;
6941;SDS011;3510;43.200;27.920;2023-08-20T14:02:52;9.25;;;6.35;;
6941;SDS011;3510;43.200;27.920;2023-08-20T14:05:18;15.75;;;5.65;;
6941;SDS011;3510;43.200;27.920;2023-08-20T14:07:45;10.32;;;5.43;;
6941;SDS011;3510;43.200;27.920;2023-08-20T14:10:12;19.23;;;6.18;;
6941;SDS011;3510;43.200;27.920;2023-08-20T14:12:39;24.70;;;7.38;;
6941;SDS011;3510;43.200;27.920;2023-08-20T14:15:06;121.18;;;12.93;;
6941;SDS011;3510;43.200;27.920;2023-08-20T14:17:33;47.35;;;8.43;;
6941;SDS011;3510;43.200;27.920;2023-08-20T14:20:01;74.90;;;8.02;;
6941;SDS011;3510;43.200;27.920;2023-08-20T14:22:32;37.20;;;6.32;;
6941;SDS011;3510;43.200;27.920;2023-08-20T14:24:59;53.90;;;8.05;;
6941;SDS011;3510;43.200;27.920;2023-08-20T14:27:26;7.07;;;5.40;;
6941;SDS011;3510;43.200;27.920;2023-08-20T14:29:53;22.08;;;5.93;;
6941;SDS011;3510;43.200;27.920;2023-08-20T14:32:20;20.40;;;5.55;;
6941;SDS011;3510;43.200;27.920;2023-08-20T14:34:47;36.45;;;7.85;;
6941;SDS011;3510;43.200;27.920;2023-08-20T14:37:20;5.63;;;5.15;;
6941;SDS011;3510;43.200;27.920;2023-08-20T14:39:49;73.18;;;8.63;;
6941;SDS011;3510;43.200;27.920;2023-08-20T14:42:15;16.05;;;5.40;;
6941;SDS011;3510;43.200;27.920;2023-08-20T14:44:42;10.32;;;5.32;;
6941;SDS011;3510;43.200;27.920;2023-08-20T14:47:09;14.88;;;5.93;;
6941;SDS011;3510;43.200;27.920;2023-08-20T14:49:36;11.70;;;5.32;;
6941;SDS011;3510;43.200;27.920;2023-08-20T14:52:08;29.35;;;7.00;;
6941;SDS011;3510;43.200;27.920;2023-08-20T14:54:36;34.17;;;7.40;;
6941;SDS011;3510;43.200;27.920;2023-08-20T14:57:03;35.25;;;6.30;;
6941;SDS011;3510;43.200;27.920;2023-08-20T14:59:30;13.95;;;5.75;;
6941;SDS011;3510;43.200;27.920;2023-08-20T15:01:57;7.15;;;5.60;;
6941;SDS011;3510;43.200;27.920;2023-08-20T15:04:24;9.63;;;5.85;;
6941;SDS011;3510;43.200;27.920;2023-08-20T15:06:51;51.25;;;7.70;;
6941;SDS011;3510;43.200;27.920;2023-08-20T15:09:18;22.23;;;6.05;;
6941;SDS011;3510;43.200;27.920;2023-08-20T15:11:47;35.80;;;7.15;;
6941;SDS011;3510;43.200;27.920;2023-08-20T15:14:13;20.23;;;6.40;;
6941;SDS011;3510;43.200;27.920;2023-08-20T15:16:40;23.27;;;7.53;;
6941;SDS011;3510;43.200;27.920;2023-08-20T15:19:10;12.27;;;6.68;;
6941;SDS011;3510;43.200;27.920;2023-08-20T15:21:37;29.88;;;9.80;;
6941;SDS011;3510;43.200;27.920;2023-08-20T15:24:04;9.18;;;5.63;;
6941;SDS011;3510;43.200;27.920;2023-08-20T15:26:31;20.25;;;5.50;;
6941;SDS011;3510;43.200;27.920;2023-08-20T15:29:00;10.40;;;6.03;;
6941;SDS011;3510;43.200;27.920;2023-08-20T15:31:27;19.55;;;7.15;;
6941;SDS011;3510;43.200;27.920;2023-08-20T15:33:55;11.75;;;5.53;;
6941;SDS011;3510;43.200;27.920;2023-08-20T15:36:22;14.77;;;4.90;;
6941;SDS011;3510;43.200;27.920;2023-08-20T15:38:49;15.85;;;5.75;;
6941;SDS011;3510;43.200;27.920;2023-08-20T15:41:18;17.17;;;5.38;;
6941;SDS011;3510;43.200;27.920;2023-08-20T15:43:44;9.63;;;4.43;;
6941;SDS011;3510;43.200;27.920;2023-08-20T15:46:12;6.93;;;3.92;;
6941;SDS011;3510;43.200;27.920;2023-08-20T15:48:39;36.10;;;7.35;;
6941;SDS011;3510;43.200;27.920;2023-08-20T15:51:05;13.23;;;4.78;;
6941;SDS011;3510;43.200;27.920;2023-08-20T15:53:32;62.22;;;7.32;;
6941;SDS011;3510;43.200;27.920;2023-08-20T15:55:59;31.67;;;5.93;;
6941;SDS011;3510;43.200;27.920;2023-08-20T15:58:26;12.50;;;4.60;;
6941;SDS011;3510;43.200;27.920;2023-08-20T16:00:54;17.85;;;6.20;;
6941;SDS011;3510;43.200;27.920;2023-08-20T16:03:22;25.63;;;5.65;;
6941;SDS011;3510;43.200;27.920;2023-08-20T16:05:49;13.77;;;5.38;;
6941;SDS011;3510;43.200;27.920;2023-08-20T16:08:16;11.32;;;4.85;;
6941;SDS011;3510;43.200;27.920;2023-08-20T16:10:42;26.02;;;6.10;;
6941;SDS011;3510;43.200;27.920;2023-08-20T16:13:09;8.52;;;4.88;;
6941;SDS011;3510;43.200;27.920;2023-08-20T16:15:35;13.10;;;5.20;;
6941;SDS011;3510;43.200;27.920;2023-08-20T16:18:02;9.93;;;5.13;;
6941;SDS011;3510;43.200;27.920;2023-08-20T16:20:33;21.23;;;6.35;;
6941;SDS011;3510;43.200;27.920;2023-08-20T16:23:01;17.02;;;6.78;;
6941;SDS011;3510;43.200;27.920;2023-08-20T16:25:28;53.55;;;9.30;;
6941;SDS011;3510;43.200;27.920;2023-08-20T16:27:56;8.60;;;5.80;;
6941;SDS011;3510;43.200;27.920;2023-08-20T16:30:23;6.53;;;5.25;;
6941;SDS011;3510;43.200;27.920;2023-08-20T16:32:51;36.40;;;7.95;;
6941;SDS011;3510;43.200;27.920;2023-08-20T16:35:18;30.15;;;6.78;;
6941;SDS011;3510;43.200;27.920;2023-08-20T16:37:46;11.38;;;5.20;;
6941;SDS011;3510;43.200;27.920;2023-08-20T16:40:19;9.98;;;4.57;;
6941;SDS011;3510;43.200;27.920;2023-08-20T16:42:50;47.10;;;6.55;;
6941;SDS011;3510;43.200;27.920;2023-08-20T16:45:17;10.73;;;5.03;;
6941;SDS011;3510;43.200;27.920;2023-08-20T16:47:44;13.60;;;5.43;;
6941;SDS011;3510;43.200;27.920;2023-08-20T16:50:11;9.60;;;4.90;;
6941;SDS011;3510;43.200;27.920;2023-08-20T16:52:38;36.88;;;7.50;;
6941;SDS011;3510;43.200;27.920;2023-08-20T16:55:07;9.02;;;5.10;;
6941;SDS011;3510;43.200;27.920;2023-08-20T16:57:34;18.05;;;5.88;;
6941;SDS011;3510;43.200;27.920;2023-08-20T17:00:00;28.58;;;7.10;;
6941;SDS011;3510;43.200;27.920;2023-08-20T17:02:29;21.65;;;5.55;;
6941;SDS011;3510;43.200;27.920;2023-08-20T17:04:56;27.52;;;7.45;;
6941;SDS011;3510;43.200;27.920;2023-08-20T17:07:22;22.70;;;4.75;;
6941;SDS011;3510;43.200;27.920;2023-08-20T17:09:49;21.45;;;4.32;;
6941;SDS011;3510;43.200;27.920;2023-08-20T17:12:17;15.55;;;4.47;;
6941;SDS011;3510;43.200;27.920;2023-08-20T17:14:44;34.40;;;6.63;;
6941;SDS011;3510;43.200;27.920;2023-08-20T17:17:11;12.80;;;4.13;;
6941;SDS011;3510;43.200;27.920;2023-08-20T17:19:38;22.88;;;6.13;;
6941;SDS011;3510;43.200;27.920;2023-08-20T17:22:05;16.77;;;4.47;;
6941;SDS011;3510;43.200;27.920;2023-08-20T17:24:47;13.73;;;5.00;;
6941;SDS011;3510;43.200;27.920;2023-08-20T17:27:13;22.13;;;5.85;;
6941;SDS011;3510;43.200;27.920;2023-08-20T17:32:33;28.45;;;5.70;;
6941;SDS011;3510;43.200;27.920;2023-08-20T17:35:00;6.43;;;3.85;;
6941;SDS011;3510;43.200;27.920;2023-08-20T17:37:27;19.30;;;4.32;;
6941;SDS011;3510;43.200;27.920;2023-08-20T17:39:54;11.52;;;4.53;;
6941;SDS011;3510;43.200;27.920;2023-08-20T17:42:21;9.30;;;4.82;;
6941;SDS011;3510;43.200;27.920;2023-08-20T17:44:48;8.65;;;6.50;;
6941;SDS011;3510;43.200;27.920;2023-08-20T17:47:16;44.80;;;33.25;;
6941;SDS011;3510;43.200;27.920;2023-08-20T17:49:44;67.30;;;45.83;;
6941;SDS011;3510;43.200;27.920;2023-08-20T17:52:10;26.67;;;19.42;;
6941;SDS011;3510;43.200;27.920;2023-08-20T17:54:38;24.08;;;12.02;;
6941;SDS011;3510;43.200;27.920;2023-08-20T17:57:05;10.90;;;7.53;;
6941;SDS011;3510;43.200;27.920;2023-08-20T17:59:32;14.13;;;6.93;;
6941;SDS011;3510;43.200;27.920;2023-08-20T18:01:59;12.70;;;9.25;;
6941;SDS011;3510;43.200;27.920;2023-08-20T18:04:27;14.80;;;11.65;;
6941;SDS011;3510;43.200;27.920;2023-08-20T18:06:54;12.40;;;6.97;;
6941;SDS011;3510;43.200;27.920;2023-08-20T18:09:34;6.32;;;5.80;;
6941;SDS011;3510;43.200;27.920;2023-08-20T18:12:02;16.05;;;5.47;;
6941;SDS011;3510;43.200;27.920;2023-08-20T18:14:29;12.40;;;6.47;;
6941;SDS011;3510;43.200;27.920;2023-08-20T18:16:57;8.82;;;4.80;;
6941;SDS011;3510;43.200;27.920;2023-08-20T18:19:23;6.25;;;4.30;;
6941;SDS011;3510;43.200;27.920;2023-08-20T18:24:36;7.15;;;5.05;;
6941;SDS011;3510;43.200;27.920;2023-08-20T18:27:03;7.28;;;6.72;;
6941;SDS011;3510;43.200;27.920;2023-08-20T18:29:30;7.25;;;6.57;;
6941;SDS011;3510;43.200;27.920;2023-08-20T18:31:57;7.30;;;5.47;;
6941;SDS011;3510;43.200;27.920;2023-08-20T18:34:24;9.73;;;5.03;;
6941;SDS011;3510;43.200;27.920;2023-08-20T18:36:51;5.65;;;5.25;;
6941;SDS011;3510;43.200;27.920;2023-08-20T18:39:33;9.25;;;5.03;;
6941;SDS011;3510;43.200;27.920;2023-08-20T18:42:00;9.45;;;5.13;;
6941;SDS011;3510;43.200;27.920;2023-08-20T18:44:27;8.45;;;4.43;;
6941;SDS011;3510;43.200;27.920;2023-08-20T18:46:54;4.53;;;4.13;;
6941;SDS011;3510;43.200;27.920;2023-08-20T18:49:21;5.38;;;4.88;;
6941;SDS011;3510;43.200;27.920;2023-08-20T18:51:48;5.60;;;4.25;;
6941;SDS011;3510;43.200;27.920;2023-08-20T18:54:29;4.78;;;4.38;;
6941;SDS011;3510;43.200;27.920;2023-08-20T18:56:57;6.15;;;4.30;;
6941;SDS011;3510;43.200;27.920;2023-08-20T18:59:24;9.63;;;4.32;;
6941;SDS011;3510;43.200;27.920;2023-08-20T19:01:51;5.10;;;3.80;;
6941;SDS011;3510;43.200;27.920;2023-08-20T19:04:18;6.03;;;4.60;;
6941;SDS011;3510;43.200;27.920;2023-08-20T19:06:44;4.93;;;4.53;;
6941;SDS011;3510;43.200;27.920;2023-08-20T19:09:23;5.53;;;4.93;;
6941;SDS011;3510;43.200;27.920;2023-08-20T19:11:53;5.57;;;5.03;;
6941;SDS011;3510;43.200;27.920;2023-08-20T19:14:22;5.25;;;4.90;;
6941;SDS011;3510;43.200;27.920;2023-08-20T19:16:49;8.75;;;5.15;;
6941;SDS011;3510;43.200;27.920;2023-08-20T19:19:16;11.18;;;5.18;;
6941;SDS011;3510;43.200;27.920;2023-08-20T19:21:43;20.30;;;7.20;;
6941;SDS011;3510;43.200;27.920;2023-08-20T19:24:09;5.40;;;4.82;;
6941;SDS011;3510;43.200;27.920;2023-08-20T19:26:36;8.73;;;4.95;;
6941;SDS011;3510;43.200;27.920;2023-08-20T19:29:03;10.48;;;6.47;;
6941;SDS011;3510;43.200;27.920;2023-08-20T19:31:31;13.27;;;7.25;;
6941;SDS011;3510;43.200;27.920;2023-08-20T19:33:58;12.15;;;6.05;;
6941;SDS011;3510;43.200;27.920;2023-08-20T19:36:25;6.07;;;4.88;;
6941;SDS011;3510;43.200;27.920;2023-08-20T19:38:52;6.18;;;5.57;;
6941;SDS011;3510;43.200;27.920;2023-08-20T19:41:19;6.45;;;4.72;;
6941;SDS011;3510;43.200;27.920;2023-08-20T19:43:46;7.45;;;5.80;;
6941;SDS011;3510;43.200;27.920;2023-08-20T19:46:13;7.90;;;5.10;;
6941;SDS011;3510;43.200;27.920;2023-08-20T19:48:42;5.25;;;4.40;;
6941;SDS011;3510;43.200;27.920;2023-08-20T19:51:11;7.35;;;4.30;;
6941;SDS011;3510;43.200;27.920;2023-08-20T19:53:38;10.77;;;4.97;;
6941;SDS011;3510;43.200;27.920;2023-08-20T19:56:09;6.50;;;4.25;;
6941;SDS011;3510;43.200;27.920;2023-08-20T19:58:36;9.63;;;4.50;;
6941;SDS011;3510;43.200;27.920;2023-08-20T20:01:03;5.20;;;4.07;;
6941;SDS011;3510;43.200;27.920;2023-08-20T20:03:30;6.57;;;4.40;;
6941;SDS011;3510;43.200;27.920;2023-08-20T20:06:00;7.15;;;4.50;;
6941;SDS011;3510;43.200;27.920;2023-08-20T20:08:27;6.28;;;4.35;;
6941;SDS011;3510;43.200;27.920;2023-08-20T20:10:54;5.93;;;3.88;;
6941;SDS011;3510;43.200;27.920;2023-08-20T20:13:21;6.97;;;4.30;;
6941;SDS011;3510;43.200;27.920;2023-08-20T20:15:48;4.47;;;3.90;;
6941;SDS011;3510;43.200;27.920;2023-08-20T20:18:15;5.60;;;5.10;;
6941;SDS011;3510;43.200;27.920;2023-08-20T20:20:41;3.65;;;3.35;;
6941;SDS011;3510;43.200;27.920;2023-08-20T20:23:15;5.30;;;3.58;;
6941;SDS011;3510;43.200;27.920;2023-08-20T20:25:42;3.83;;;3.53;;
6941;SDS011;3510;43.200;27.920;2023-08-20T20:28:09;4.70;;;4.03;;
6941;SDS011;3510;43.200;27.920;2023-08-20T20:30:36;4.93;;;3.67;;
6941;SDS011;3510;43.200;27.920;2023-08-20T20:33:03;3.63;;;3.42;;
6941;SDS011;3510;43.200;27.920;2023-08-20T20:35:30;3.83;;;3.53;;
6941;SDS011;3510;43.200;27.920;2023-08-20T20:37:57;11.93;;;5.00;;
6941;SDS011;3510;43.200;27.920;2023-08-20T20:40:25;11.48;;;4.95;;
6941;SDS011;3510;43.200;27.920;2023-08-20T20:42:52;16.25;;;6.18;;
6941;SDS011;3510;43.200;27.920;2023-08-20T20:45:19;16.23;;;4.93;;
6941;SDS011;3510;43.200;27.920;2023-08-20T20:47:46;12.80;;;4.72;;
6941;SDS011;3510;43.200;27.920;2023-08-20T20:50:13;5.18;;;3.63;;
6941;SDS011;3510;43.200;27.920;2023-08-20T20:52:40;4.97;;;4.38;;
6941;SDS011;3510;43.200;27.920;2023-08-20T20:55:07;4.00;;;3.50;;
6941;SDS011;3510;43.200;27.920;2023-08-20T20:57:36;6.53;;;3.63;;
6941;SDS011;3510;43.200;27.920;2023-08-20T21:00:03;7.15;;;5.18;;
6941;SDS011;3510;43.200;27.920;2023-08-20T21:02:30;4.25;;;3.85;;
6941;SDS011;3510;43.200;27.920;2023-08-20T21:04:58;4.70;;;4.30;;
6941;SDS011;3510;43.200;27.920;2023-08-20T21:07:24;5.50;;;4.40;;
6941;SDS011;3510;43.200;27.920;2023-08-20T21:09:51;9.27;;;4.80;;
6941;SDS011;3510;43.200;27.920;2023-08-20T21:12:24;6.18;;;4.00;;
6941;SDS011;3510;43.200;27.920;2023-08-20T21:15:03;5.68;;;4.30;;
6941;SDS011;3510;43.200;27.920;2023-08-20T21:17:30;12.38;;;4.43;;
6941;SDS011;3510;43.200;27.920;2023-08-20T21:19:57;4.07;;;3.88;;